sensor_id;sensor_type;location;lat;lon;timestamp;pressure;altitude;pressure_sealevel;temperature;humidity
49194;BME280;35029;50.804;12.866;2022-12-07T00:01:31;97476.88;;;0.92;100.00
49194;BME280;35029;50.804;12.866;2022-12-07T00:03:59;97481.56;;;0.89;100.00
49194;BME280;35029;50.804;12.866;2022-12-07T00:06:39;97483.06;;;0.91;100.00
49194;BME280;35029;50.804;12.866;2022-12-07T00:09:07;97475.50;;;0.88;100.00
49194;BME280;35029;50.804;12.866;2022-12-07T00:11:34;97481.81;;;0.95;100.00
49194;BME280;35029;50.804;12.866;2022-12-07T00:14:03;97468.78;;;0.86;100.00
49194;BME280;35029;50.804;12.866;2022-12-07T00:16:31;97470.16;;;0.90;100.00
49194;BME280;35029;50.804;12.866;2022-12-07T00:18:57;97467.94;;;0.95;100.00
49194;BME280;35029;50.804;12.866;2022-12-07T00:21:29;97446.66;;;0.90;100.00
49194;BME280;35029;50.804;12.866;2022-12-07T00:23:55;97467.28;;;0.93;100.00
49194;BME280;35029;50.804;12.866;2022-12-07T00:26:26;97442.28;;;0.90;100.00
49194;BME280;35029;50.804;12.866;2022-12-07T00:28:54;97460.25;;;0.93;100.00
49194;BME280;35029;50.804;12.866;2022-12-07T00:31:23;97464.09;;;0.99;100.00
49194;BME280;35029;50.804;12.866;2022-12-07T00:33:50;97449.13;;;0.91;100.00
49194;BME280;35029;50.804;12.866;2022-12-07T00:36:18;97451.47;;;0.94;100.00
49194;BME280;35029;50.804;12.866;2022-12-07T00:38:43;97451.63;;;0.93;100.00
49194;BME280;35029;50.804;12.866;2022-12-07T00:41:14;97449.69;;;0.95;100.00
49194;BME280;35029;50.804;12.866;2022-12-07T00:43:42;97450.13;;;0.90;100.00
49194;BME280;35029;50.804;12.866;2022-12-07T00:46:08;97438.16;;;0.88;100.00
49194;BME280;35029;50.804;12.866;2022-12-07T00:48:33;97447.25;;;0.83;100.00
49194;BME280;35029;50.804;12.866;2022-12-07T00:50:59;97453.13;;;0.86;100.00
49194;BME280;35029;50.804;12.866;2022-12-07T00:53:25;97451.22;;;0.88;100.00
49194;BME280;35029;50.804;12.866;2022-12-07T00:55:50;97432.09;;;0.87;100.00
49194;BME280;35029;50.804;12.866;2022-12-07T00:58:18;97442.94;;;0.92;100.00
49194;BME280;35029;50.804;12.866;2022-12-07T01:00:43;97440.63;;;0.89;100.00
49194;BME280;35029;50.804;12.866;2022-12-07T01:03:11;97432.00;;;0.89;100.00
49194;BME280;35029;50.804;12.866;2022-12-07T01:05:37;97445.03;;;0.89;100.00
49194;BME280;35029;50.804;12.866;2022-12-07T01:08:03;97437.91;;;0.81;100.00
49194;BME280;35029;50.804;12.866;2022-12-07T01:10:29;97428.72;;;0.77;100.00
49194;BME280;35029;50.804;12.866;2022-12-07T01:12:57;97435.44;;;0.79;100.00
49194;BME280;35029;50.804;12.866;2022-12-07T01:15:24;97438.44;;;0.84;100.00
49194;BME280;35029;50.804;12.866;2022-12-07T01:17:50;97437.34;;;0.77;100.00
49194;BME280;35029;50.804;12.866;2022-12-07T01:20:15;97426.25;;;0.75;100.00
49194;BME280;35029;50.804;12.866;2022-12-07T01:22:42;97437.75;;;0.82;100.00
49194;BME280;35029;50.804;12.866;2022-12-07T01:25:10;97438.16;;;0.88;100.00
49194;BME280;35029;50.804;12.866;2022-12-07T01:27:37;97442.84;;;0.84;100.00
49194;BME280;35029;50.804;12.866;2022-12-07T01:30:05;97432.84;;;0.79;100.00
49194;BME280;35029;50.804;12.866;2022-12-07T01:32:31;97436.50;;;0.87;100.00
49194;BME280;35029;50.804;12.866;2022-12-07T01:34:57;97429.13;;;0.82;100.00
49194;BME280;35029;50.804;12.866;2022-12-07T01:37:22;97436.41;;;0.78;100.00
49194;BME280;35029;50.804;12.866;2022-12-07T01:39:49;97438.06;;;0.79;100.00
49194;BME280;35029;50.804;12.866;2022-12-07T01:42:15;97433.66;;;0.80;100.00
49194;BME280;35029;50.804;12.866;2022-12-07T01:47:52;97428.00;;;0.84;100.00
49194;BME280;35029;50.804;12.866;2022-12-07T01:50:19;97432.09;;;0.87;100.00
49194;BME280;35029;50.804;12.866;2022-12-07T01:52:49;97433.34;;;0.83;100.00
49194;BME280;35029;50.804;12.866;2022-12-07T01:55:17;97435.44;;;0.79;100.00
49194;BME280;35029;50.804;12.866;2022-12-07T01:57:46;97432.03;;;0.69;100.00
49194;BME280;35029;50.804;12.866;2022-12-07T02:00:13;97433.13;;;0.66;100.00
49194;BME280;35029;50.804;12.866;2022-12-07T02:02:45;97423.22;;;0.70;100.00
49194;BME280;35029;50.804;12.866;2022-12-07T02:05:13;97414.59;;;0.70;100.00
49194;BME280;35029;50.804;12.866;2022-12-07T02:07:39;97419.41;;;0.64;100.00
49194;BME280;35029;50.804;12.866;2022-12-07T02:12:37;97413.94;;;0.48;100.00
49194;BME280;35029;50.804;12.866;2022-12-07T02:15:03;97375.94;;;0.26;100.00
49194;BME280;35029;50.804;12.866;2022-12-07T02:17:43;97416.81;;;0.45;100.00
49194;BME280;35029;50.804;12.866;2022-12-07T02:23:13;97417.25;;;0.40;100.00
49194;BME280;35029;50.804;12.866;2022-12-07T02:29:32;97399.28;;;0.37;100.00
49194;BME280;35029;50.804;12.866;2022-12-07T02:31:32;97353.22;;;0.08;100.00
49194;BME280;35029;50.804;12.866;2022-12-07T02:34:08;97392.97;;;0.20;100.00
49194;BME280;35029;50.804;12.866;2022-12-07T02:36:43;97392.56;;;0.15;100.00
49194;BME280;35029;50.804;12.866;2022-12-07T02:39:23;97388.31;;;0.14;100.00
49194;BME280;35029;50.804;12.866;2022-12-07T02:41:59;97389.69;;;0.18;100.00
49194;BME280;35029;50.804;12.866;2022-12-07T02:44:27;97378.56;;;0.16;100.00
49194;BME280;35029;50.804;12.866;2022-12-07T02:46:55;97376.66;;;0.08;100.00
49194;BME280;35029;50.804;12.866;2022-12-07T02:49:24;97380.66;;;0.12;100.00
49194;BME280;35029;50.804;12.866;2022-12-07T02:51:52;97377.06;;;0.04;100.00
49194;BME280;35029;50.804;12.866;2022-12-07T02:54:19;97377.34;;;0.01;100.00
49194;BME280;35029;50.804;12.866;2022-12-07T03:18:52;97367.47;;;-0.25;100.00
49194;BME280;35029;50.804;12.866;2022-12-07T03:21:23;97367.75;;;-0.28;100.00
49194;BME280;35029;50.804;12.866;2022-12-07T03:23:54;97369.25;;;-0.26;100.00
49194;BME280;35029;50.804;12.866;2022-12-07T03:26:25;97345.91;;;-0.37;100.00
49194;BME280;35029;50.804;12.866;2022-12-07T03:28:57;97369.25;;;-0.26;100.00
49194;BME280;35029;50.804;12.866;2022-12-07T03:31:31;97358.28;;;-0.20;100.00
49194;BME280;35029;50.804;12.866;2022-12-07T03:34:08;97349.91;;;-0.23;100.00
49194;BME280;35029;50.804;12.866;2022-12-07T03:39:41;97364.06;;;-0.26;100.00
49194;BME280;35029;50.804;12.866;2022-12-07T03:42:10;97362.81;;;-0.12;100.00
49194;BME280;35029;50.804;12.866;2022-12-07T03:44:37;97359.78;;;-0.17;100.00
49194;BME280;35029;50.804;12.866;2022-12-07T03:47:09;97358.84;;;-0.16;100.00
49194;BME280;35029;50.804;12.866;2022-12-07T03:49:43;97353.75;;;-0.18;100.00
49194;BME280;35029;50.804;12.866;2022-12-07T03:52:35;97354.16;;;-0.12;100.00
49194;BME280;35029;50.804;12.866;2022-12-07T03:57:49;97339.38;;;-0.22;100.00
49194;BME280;35029;50.804;12.866;2022-12-07T04:00:16;97350.72;;;-0.03;100.00
49194;BME280;35029;50.804;12.866;2022-12-07T04:02:43;97349.06;;;-0.04;100.00
49194;BME280;35029;50.804;12.866;2022-12-07T04:05:09;97342.91;;;-0.03;100.00
49194;BME280;35029;50.804;12.866;2022-12-07T04:07:34;97335.50;;;0.02;100.00
49194;BME280;35029;50.804;12.866;2022-12-07T04:10:00;97319.19;;;-0.10;100.00
49194;BME280;35029;50.804;12.866;2022-12-07T04:12:25;97335.22;;;0.05;100.00
49194;BME280;35029;50.804;12.866;2022-12-07T04:14:51;97327.84;;;0.01;100.00
49194;BME280;35029;50.804;12.866;2022-12-07T04:17:17;97325.50;;;0.07;100.00
49194;BME280;35029;50.804;12.866;2022-12-07T04:19:42;97321.78;;;0.10;100.00
49194;BME280;35029;50.804;12.866;2022-12-07T04:22:08;97326.16;;;0.09;100.00
49194;BME280;35029;50.804;12.866;2022-12-07T04:24:34;97314.78;;;0.10;100.00
49194;BME280;35029;50.804;12.866;2022-12-07T04:27:00;97303.81;;;0.07;100.00
49194;BME280;35029;50.804;12.866;2022-12-07T04:29:26;97302.19;;;0.06;100.00
49194;BME280;35029;50.804;12.866;2022-12-07T04:31:52;97307.66;;;0.03;100.00
49194;BME280;35029;50.804;12.866;2022-12-07T04:34:18;97298.91;;;-0.06;100.00
49194;BME280;35029;50.804;12.866;2022-12-07T04:36:44;97299.84;;;0.03;100.00
49194;BME280;35029;50.804;12.866;2022-12-07T04:39:22;97300.25;;;-0.02;100.00
49194;BME280;35029;50.804;12.866;2022-12-07T04:41:48;97314.09;;;-0.02;100.00
49194;BME280;35029;50.804;12.866;2022-12-07T04:44:14;97308.38;;;-0.05;100.00
49194;BME280;35029;50.804;12.866;2022-12-07T04:46:41;97309.31;;;0.04;100.00
49194;BME280;35029;50.804;12.866;2022-12-07T04:49:07;97296.97;;;0.06;100.00
49194;BME280;35029;50.804;12.866;2022-12-07T04:51:33;97298.19;;;0.11;100.00
49194;BME280;35029;50.804;12.866;2022-12-07T04:53:59;97293.94;;;0.10;100.00
49194;BME280;35029;50.804;12.866;2022-12-07T04:56:25;97279.69;;;0.05;100.00
49194;BME280;35029;50.804;12.866;2022-12-07T04:58:52;97286.53;;;0.15;100.00
49194;BME280;35029;50.804;12.866;2022-12-07T05:01:19;97288.84;;;0.19;100.00
49194;BME280;35029;50.804;12.866;2022-12-07T05:03:45;97268.69;;;0.11;100.00
49194;BME280;35029;50.804;12.866;2022-12-07T05:06:11;97288.28;;;0.25;100.00
49194;BME280;35029;50.804;12.866;2022-12-07T05:08:37;97281.38;;;0.33;100.00
49194;BME280;35029;50.804;12.866;2022-12-07T05:11:04;97287.56;;;0.32;100.00
49194;BME280;35029;50.804;12.866;2022-12-07T05:13:30;97288.38;;;0.43;100.00
49194;BME280;35029;50.804;12.866;2022-12-07T05:15:56;97294.13;;;0.37;100.00
49194;BME280;35029;50.804;12.866;2022-12-07T05:18:22;97287.56;;;0.32;100.00
49194;BME280;35029;50.804;12.866;2022-12-07T05:20:47;97277.72;;;0.26;100.00
49194;BME280;35029;50.804;12.866;2022-12-07T05:23:13;97289.75;;;0.37;100.00
49194;BME280;35029;50.804;12.866;2022-12-07T05:25:38;97285.78;;;0.33;100.00
49194;BME280;35029;50.804;12.866;2022-12-07T05:28:04;97283.19;;;0.33;100.00
49194;BME280;35029;50.804;12.866;2022-12-07T05:30:30;97279.69;;;0.42;100.00
49194;BME280;35029;50.804;12.866;2022-12-07T05:32:56;97278.94;;;0.32;100.00
49194;BME280;35029;50.804;12.866;2022-12-07T05:35:22;97269.75;;;0.28;100.00
49194;BME280;35029;50.804;12.866;2022-12-07T05:37:47;97259.88;;;0.22;100.00
49194;BME280;35029;50.804;12.866;2022-12-07T05:40:14;97272.22;;;0.29;100.00
49194;BME280;35029;50.804;12.866;2022-12-07T05:42:40;97261.22;;;0.26;100.00
49194;BME280;35029;50.804;12.866;2022-12-07T05:45:07;97275.75;;;0.38;100.00
49194;BME280;35029;50.804;12.866;2022-12-07T05:47:32;97269.16;;;0.44;100.00
49194;BME280;35029;50.804;12.866;2022-12-07T05:49:58;97276.53;;;0.48;100.00
49194;BME280;35029;50.804;12.866;2022-12-07T05:52:24;97267.50;;;0.43;100.00
49194;BME280;35029;50.804;12.866;2022-12-07T05:54:49;97273.81;;;0.40;100.00
49194;BME280;35029;50.804;12.866;2022-12-07T05:57:15;97262.00;;;0.46;100.00
49194;BME280;35029;50.804;12.866;2022-12-07T05:59:40;97270.53;;;0.38;100.00
49194;BME280;35029;50.804;12.866;2022-12-07T06:02:09;97272.16;;;0.39;100.00
49194;BME280;35029;50.804;12.866;2022-12-07T06:04:37;97276.56;;;0.39;100.00
49194;BME280;35029;50.804;12.866;2022-12-07T06:07:04;97271.22;;;0.40;100.00
49194;BME280;35029;50.804;12.866;2022-12-07T06:09:30;97276.03;;;0.35;100.00
49194;BME280;35029;50.804;12.866;2022-12-07T06:11:57;97258.22;;;0.30;100.00
49194;BME280;35029;50.804;12.866;2022-12-07T06:14:42;97272.50;;;0.26;100.00
49194;BME280;35029;50.804;12.866;2022-12-07T06:17:08;97266.03;;;0.30;100.00
49194;BME280;35029;50.804;12.866;2022-12-07T06:19:35;97265.75;;;0.33;100.00
49194;BME280;35029;50.804;12.866;2022-12-07T06:22:01;97264.50;;;0.38;100.00
49194;BME280;35029;50.804;12.866;2022-12-07T06:24:26;97260.09;;;0.38;100.00
49194;BME280;35029;50.804;12.866;2022-12-07T06:26:52;97266.44;;;0.36;100.00
49194;BME280;35029;50.804;12.866;2022-12-07T06:29:18;97264.34;;;0.39;100.00
49194;BME280;35029;50.804;12.866;2022-12-07T06:31:44;97261.34;;;0.34;100.00
49194;BME280;35029;50.804;12.866;2022-12-07T06:34:15;97256.28;;;0.32;100.00
49194;BME280;35029;50.804;12.866;2022-12-07T06:36:41;97257.53;;;0.28;100.00
49194;BME280;35029;50.804;12.866;2022-12-07T06:39:07;97258.06;;;0.32;100.00
49194;BME280;35029;50.804;12.866;2022-12-07T06:41:37;97248.59;;;0.31;100.00
49194;BME280;35029;50.804;12.866;2022-12-07T06:44:05;97261.50;;;0.32;100.00
49194;BME280;35029;50.804;12.866;2022-12-07T06:46:31;97260.94;;;0.39;100.00
49194;BME280;35029;50.804;12.866;2022-12-07T06:48:57;97259.56;;;0.35;100.00
49194;BME280;35029;50.804;12.866;2022-12-07T06:51:22;97272.56;;;0.44;100.00
49194;BME280;35029;50.804;12.866;2022-12-07T06:53:48;97259.13;;;0.39;100.00
49194;BME280;35029;50.804;12.866;2022-12-07T06:56:14;97283.28;;;0.41;100.00
49194;BME280;35029;50.804;12.866;2022-12-07T06:58:40;97287.81;;;0.39;100.00
49194;BME280;35029;50.804;12.866;2022-12-07T07:01:14;97288.97;;;0.92;100.00
49194;BME280;35029;50.804;12.866;2022-12-07T07:03:40;97274.25;;;1.19;100.00
49194;BME280;35029;50.804;12.866;2022-12-07T07:06:06;97281.72;;;1.32;100.00
49194;BME280;35029;50.804;12.866;2022-12-07T07:08:36;97276.84;;;1.01;100.00
49194;BME280;35029;50.804;12.866;2022-12-07T07:11:03;97286.06;;;0.67;100.00
49194;BME280;35029;50.804;12.866;2022-12-07T07:13:30;97297.47;;;0.66;100.00
49194;BME280;35029;50.804;12.866;2022-12-07T07:15:58;97298.16;;;0.69;100.00
49194;BME280;35029;50.804;12.866;2022-12-07T07:18:25;97297.63;;;0.65;100.00
49194;BME280;35029;50.804;12.866;2022-12-07T07:20:52;97300.22;;;0.65;100.00
49194;BME280;35029;50.804;12.866;2022-12-07T07:23:19;97283.91;;;0.63;100.00
49194;BME280;35029;50.804;12.866;2022-12-07T07:25:46;97285.81;;;0.61;100.00
49194;BME280;35029;50.804;12.866;2022-12-07T07:28:11;97295.97;;;0.64;100.00
49194;BME280;35029;50.804;12.866;2022-12-07T07:30:42;97304.63;;;0.64;100.00
49194;BME280;35029;50.804;12.866;2022-12-07T07:33:10;97300.06;;;0.66;100.00
49194;BME280;35029;50.804;12.866;2022-12-07T07:35:37;97300.75;;;0.69;100.00
49194;BME280;35029;50.804;12.866;2022-12-07T07:38:06;97305.03;;;0.70;100.00
49194;BME280;35029;50.804;12.866;2022-12-07T07:40:32;97303.53;;;0.67;100.00
49194;BME280;35029;50.804;12.866;2022-12-07T07:42:59;97309.81;;;0.74;100.00
49194;BME280;35029;50.804;12.866;2022-12-07T07:45:27;97309.41;;;0.69;100.00
49194;BME280;35029;50.804;12.866;2022-12-07T07:47:53;97301.56;;;0.69;100.00
49194;BME280;35029;50.804;12.866;2022-12-07T07:50:24;97301.56;;;0.69;100.00
49194;BME280;35029;50.804;12.866;2022-12-07T07:52:49;97317.22;;;0.69;100.00
49194;BME280;35029;50.804;12.866;2022-12-07T07:55:15;97300.91;;;0.67;100.00
49194;BME280;35029;50.804;12.866;2022-12-07T07:57:46;97299.81;;;0.70;100.00
49194;BME280;35029;50.804;12.866;2022-12-07T08:00:42;97290.28;;;0.78;100.00
49194;BME280;35029;50.804;12.866;2022-12-07T08:03:08;97314.16;;;0.83;100.00
49194;BME280;35029;50.804;12.866;2022-12-07T08:05:34;97307.16;;;0.84;100.00
49194;BME280;35029;50.804;12.866;2022-12-07T08:11:24;97315.66;;;0.86;100.00
49194;BME280;35029;50.804;12.866;2022-12-07T08:13:51;97318.97;;;0.78;100.00
49194;BME280;35029;50.804;12.866;2022-12-07T08:16:16;97313.22;;;0.75;100.00
49194;BME280;35029;50.804;12.866;2022-12-07T08:18:43;97318.69;;;0.81;100.00
49194;BME280;35029;50.804;12.866;2022-12-07T08:21:12;97323.50;;;0.86;100.00
49194;BME280;35029;50.804;12.866;2022-12-07T08:23:40;97320.19;;;0.84;100.00
49194;BME280;35029;50.804;12.866;2022-12-07T08:26:13;97313.88;;;0.87;100.00
49194;BME280;35029;50.804;12.866;2022-12-07T08:28:40;97315.94;;;0.83;100.00
49194;BME280;35029;50.804;12.866;2022-12-07T08:31:09;97314.00;;;0.85;100.00
49194;BME280;35029;50.804;12.866;2022-12-07T08:33:36;97318.63;;;0.91;100.00
49194;BME280;35029;50.804;12.866;2022-12-07T08:36:04;97318.22;;;0.96;100.00
49194;BME280;35029;50.804;12.866;2022-12-07T08:38:37;97318.63;;;1.01;100.00
49194;BME280;35029;50.804;12.866;2022-12-07T08:41:04;97320.94;;;1.04;100.00
49194;BME280;35029;50.804;12.866;2022-12-07T08:43:31;97323.38;;;1.06;100.00
49194;BME280;35029;50.804;12.866;2022-12-07T08:48:29;97330.66;;;1.12;100.00
49194;BME280;35029;50.804;12.866;2022-12-07T08:50:55;97332.66;;;1.18;100.00
49194;BME280;35029;50.804;12.866;2022-12-07T08:53:21;97334.16;;;1.21;100.00
49194;BME280;35029;50.804;12.866;2022-12-07T08:55:47;97328.34;;;1.27;100.00
49194;BME280;35029;50.804;12.866;2022-12-07T08:58:18;97323.56;;;1.22;100.00
49194;BME280;35029;50.804;12.866;2022-12-07T09:00:44;97316.53;;;1.23;100.00
49194;BME280;35029;50.804;12.866;2022-12-07T09:03:27;97323.97;;;1.27;100.00
49194;BME280;35029;50.804;12.866;2022-12-07T09:07:05;97331.41;;;1.22;100.00
49194;BME280;35029;50.804;12.866;2022-12-07T09:09:38;97322.53;;;1.33;100.00
49194;BME280;35029;50.804;12.866;2022-12-07T09:12:16;97316.75;;;1.39;100.00
49194;BME280;35029;50.804;12.866;2022-12-07T09:14:43;97318.44;;;1.48;100.00
49194;BME280;35029;50.804;12.866;2022-12-07T09:17:15;97312.34;;;1.58;100.00
49194;BME280;35029;50.804;12.866;2022-12-07T09:19:46;97313.19;;;1.58;100.00
49194;BME280;35029;50.804;12.866;2022-12-07T09:22:13;97330.03;;;1.64;100.00
49194;BME280;35029;50.804;12.866;2022-12-07T09:24:43;97320.56;;;1.63;100.00
49194;BME280;35029;50.804;12.866;2022-12-07T09:27:11;97318.81;;;1.72;100.00
49194;BME280;35029;50.804;12.866;2022-12-07T09:29:40;97319.34;;;1.75;100.00
49194;BME280;35029;50.804;12.866;2022-12-07T09:32:08;97318.09;;;1.79;100.00
49194;BME280;35029;50.804;12.866;2022-12-07T09:34:55;97310.03;;;1.73;100.00
49194;BME280;35029;50.804;12.866;2022-12-07T09:37:24;97316.75;;;1.75;100.00
49194;BME280;35029;50.804;12.866;2022-12-07T09:39:52;97307.25;;;1.74;100.00
49194;BME280;35029;50.804;12.866;2022-12-07T09:44:51;97310.47;;;1.86;100.00
49194;BME280;35029;50.804;12.866;2022-12-07T09:47:25;97308.75;;;1.77;100.00
49194;BME280;35029;50.804;12.866;2022-12-07T09:49:57;97307.09;;;1.76;100.00
49194;BME280;35029;50.804;12.866;2022-12-07T09:52:27;97313.88;;;1.86;100.00
49194;BME280;35029;50.804;12.866;2022-12-07T09:54:58;97312.63;;;1.91;100.00
49194;BME280;35029;50.804;12.866;2022-12-07T09:57:31;97312.34;;;1.94;100.00
49194;BME280;35029;50.804;12.866;2022-12-07T10:00:02;97292.16;;;1.86;100.00
49194;BME280;35029;50.804;12.866;2022-12-07T10:02:37;97302.22;;;1.99;100.00
49194;BME280;35029;50.804;12.866;2022-12-07T10:05:21;97301.78;;;2.03;100.00
49194;BME280;35029;50.804;12.866;2022-12-07T10:07:51;97289.03;;;2.00;100.00
49194;BME280;35029;50.804;12.866;2022-12-07T10:10:23;97290.84;;;2.08;100.00
49194;BME280;35029;50.804;12.866;2022-12-07T10:13:05;97296.41;;;2.05;100.00
49194;BME280;35029;50.804;12.866;2022-12-07T10:15:57;97289.53;;;2.04;100.00
49194;BME280;35029;50.804;12.866;2022-12-07T10:18:42;97270.84;;;1.99;100.00
49194;BME280;35029;50.804;12.866;2022-12-07T10:21:24;97284.97;;;2.06;100.00
49194;BME280;35029;50.804;12.866;2022-12-07T10:24:30;97289.69;;;2.02;100.00
49194;BME280;35029;50.804;12.866;2022-12-07T10:26:58;97280.50;;;1.98;100.00
49194;BME280;35029;50.804;12.866;2022-12-07T10:29:34;97279.16;;;1.94;100.00
49194;BME280;35029;50.804;12.866;2022-12-07T10:32:31;97290.50;;;2.03;100.00
49194;BME280;35029;50.804;12.866;2022-12-07T10:35:26;97285.78;;;2.07;100.00
49194;BME280;35029;50.804;12.866;2022-12-07T10:37:58;97278.25;;;2.03;100.00
49194;BME280;35029;50.804;12.866;2022-12-07T10:40:33;97281.03;;;2.02;100.00
49194;BME280;35029;50.804;12.866;2022-12-07T10:43:15;97276.91;;;1.99;100.00
49194;BME280;35029;50.804;12.866;2022-12-07T10:48:26;97274.81;;;2.03;100.00
49194;BME280;35029;50.804;12.866;2022-12-07T11:05:43;97266.56;;;2.16;100.00
49194;BME280;35029;50.804;12.866;2022-12-07T11:11:25;97260.72;;;2.22;100.00
49194;BME280;35029;50.804;12.866;2022-12-07T11:17:02;97262.56;;;2.30;100.00
49194;BME280;35029;50.804;12.866;2022-12-07T11:41:54;97242.81;;;2.35;100.00
49194;BME280;35029;50.804;12.866;2022-12-07T11:44:30;97245.41;;;2.35;100.00
49194;BME280;35029;50.804;12.866;2022-12-07T11:47:05;97244.09;;;2.31;100.00
49194;BME280;35029;50.804;12.866;2022-12-07T11:52:21;97234.19;;;2.43;100.00
49194;BME280;35029;50.804;12.866;2022-12-07T11:54:50;97235.16;;;2.42;100.00
49194;BME280;35029;50.804;12.866;2022-12-07T11:57:24;97236.13;;;2.41;100.00
49194;BME280;35029;50.804;12.866;2022-12-07T11:59:59;97237.50;;;2.53;100.00
49194;BME280;35029;50.804;12.866;2022-12-07T12:02:53;97230.97;;;2.58;100.00
49194;BME280;35029;50.804;12.866;2022-12-07T12:05:39;97231.66;;;2.60;100.00
49194;BME280;35029;50.804;12.866;2022-12-07T12:08:18;97205.59;;;2.50;100.00
49194;BME280;35029;50.804;12.866;2022-12-07T12:25:47;97209.72;;;2.52;100.00
49194;BME280;35029;50.804;12.866;2022-12-07T12:31:15;97214.41;;;2.49;100.00
49194;BME280;35029;50.804;12.866;2022-12-07T12:34:00;97210.84;;;2.50;100.00
49194;BME280;35029;50.804;12.866;2022-12-07T12:42:55;97203.78;;;2.50;100.00
49194;BME280;35029;50.804;12.866;2022-12-07T12:45:48;97204.47;;;2.52;100.00
49194;BME280;35029;50.804;12.866;2022-12-07T12:48:42;97200.84;;;2.53;100.00
49194;BME280;35029;50.804;12.866;2022-12-07T12:51:53;97200.22;;;2.51;100.00
49194;BME280;35029;50.804;12.866;2022-12-07T12:54:32;97199.88;;;2.54;100.00
49194;BME280;35029;50.804;12.866;2022-12-07T12:57:21;97194.81;;;2.53;100.00
49194;BME280;35029;50.804;12.866;2022-12-07T13:00:00;97199.88;;;2.54;100.00
49194;BME280;35029;50.804;12.866;2022-12-07T13:05:23;97193.03;;;2.62;100.00
49194;BME280;35029;50.804;12.866;2022-12-07T13:07:56;97188.84;;;2.69;100.00
49194;BME280;35029;50.804;12.866;2022-12-07T13:15:48;97188.34;;;2.74;100.00
49194;BME280;35029;50.804;12.866;2022-12-07T13:23:51;97189.00;;;2.76;100.00
49194;BME280;35029;50.804;12.866;2022-12-07T13:26:24;97190.97;;;2.74;100.00
49194;BME280;35029;50.804;12.866;2022-12-07T13:29:15;97183.94;;;2.74;100.00
49194;BME280;35029;50.804;12.866;2022-12-07T13:31:55;97175.59;;;2.79;100.00
49194;BME280;35029;50.804;12.866;2022-12-07T13:34:41;97183.44;;;2.79;100.00
49194;BME280;35029;50.804;12.866;2022-12-07T13:37:25;97184.91;;;2.73;100.00
49194;BME280;35029;50.804;12.866;2022-12-07T13:39:57;97184.25;;;2.71;100.00
49194;BME280;35029;50.804;12.866;2022-12-07T13:44:53;97185.72;;;2.74;100.00
49194;BME280;35029;50.804;12.866;2022-12-07T13:47:41;97178.38;;;2.77;100.00
49194;BME280;35029;50.804;12.866;2022-12-07T13:50:27;97189.47;;;2.71;100.00
49194;BME280;35029;50.804;12.866;2022-12-07T13:52:59;97185.56;;;2.75;99.73
49194;BME280;35029;50.804;12.866;2022-12-07T13:55:27;97176.72;;;2.76;99.44
49194;BME280;35029;50.804;12.866;2022-12-07T13:57:54;97183.09;;;2.74;100.00
49194;BME280;35029;50.804;12.866;2022-12-07T14:00:23;97173.47;;;2.74;100.00
49194;BME280;35029;50.804;12.866;2022-12-07T14:03:04;97179.00;;;2.71;100.00
49194;BME280;35029;50.804;12.866;2022-12-07T14:05:35;97169.66;;;2.60;100.00
49194;BME280;35029;50.804;12.866;2022-12-07T14:10:32;97173.44;;;2.66;100.00
49194;BME280;35029;50.804;12.866;2022-12-07T14:13:03;97171.47;;;2.68;100.00
49194;BME280;35029;50.804;12.866;2022-12-07T14:15:30;97176.38;;;2.71;100.00
49194;BME280;35029;50.804;12.866;2022-12-07T14:17:58;97171.31;;;2.69;100.00
49194;BME280;35029;50.804;12.866;2022-12-07T14:20:35;97169.84;;;2.67;100.00
49194;BME280;35029;50.804;12.866;2022-12-07T14:23:03;97175.91;;;2.67;100.00
49194;BME280;35029;50.804;12.866;2022-12-07T14:25:54;97178.00;;;2.64;100.00
49194;BME280;35029;50.804;12.866;2022-12-07T14:28:32;97185.88;;;2.64;100.00
49194;BME280;35029;50.804;12.866;2022-12-07T14:30:59;97182.75;;;2.68;99.46
49194;BME280;35029;50.804;12.866;2022-12-07T14:33:26;97185.19;;;2.62;99.31
49194;BME280;35029;50.804;12.866;2022-12-07T14:35:52;97187.50;;;2.65;98.61
49194;BME280;35029;50.804;12.866;2022-12-07T14:38:24;97172.59;;;2.57;98.83
49194;BME280;35029;50.804;12.866;2022-12-07T14:40:51;97183.56;;;2.61;99.10
49194;BME280;35029;50.804;12.866;2022-12-07T14:43:18;97166.19;;;2.51;99.47
49194;BME280;35029;50.804;12.866;2022-12-07T14:45:44;97173.72;;;2.54;99.12
49194;BME280;35029;50.804;12.866;2022-12-07T14:48:14;97180.56;;;2.47;100.00
49194;BME280;35029;50.804;12.866;2022-12-07T14:50:43;97186.44;;;2.41;99.78
49194;BME280;35029;50.804;12.866;2022-12-07T14:53:13;97191.66;;;2.41;99.62
49194;BME280;35029;50.804;12.866;2022-12-07T14:55:39;97193.13;;;2.44;99.55
49194;BME280;35029;50.804;12.866;2022-12-07T14:58:05;97186.94;;;2.45;100.00
49194;BME280;35029;50.804;12.866;2022-12-07T15:00:31;97189.56;;;2.45;99.99
49194;BME280;35029;50.804;12.866;2022-12-07T15:02:57;97183.97;;;2.40;100.00
49194;BME280;35029;50.804;12.866;2022-12-07T15:05:22;97177.94;;;2.39;100.00
49194;BME280;35029;50.804;12.866;2022-12-07T15:07:51;97189.53;;;2.36;100.00
49194;BME280;35029;50.804;12.866;2022-12-07T15:10:23;97192.94;;;2.37;100.00
49194;BME280;35029;50.804;12.866;2022-12-07T15:12:49;97203.72;;;2.34;100.00
49194;BME280;35029;50.804;12.866;2022-12-07T15:15:14;97204.38;;;2.28;100.00
49194;BME280;35029;50.804;12.866;2022-12-07T15:17:40;97212.00;;;2.21;100.00
49194;BME280;35029;50.804;12.866;2022-12-07T15:20:11;97202.03;;;2.25;100.00
49194;BME280;35029;50.804;12.866;2022-12-07T15:22:37;97204.31;;;2.19;100.00
49194;BME280;35029;50.804;12.866;2022-12-07T15:25:03;97203.50;;;2.19;100.00
49194;BME280;35029;50.804;12.866;2022-12-07T15:27:31;97202.00;;;2.16;100.00